Chanute, KS

11:41 AM CDT on March 30, 2017 (GMT -0500)
Chanute Martin Johnson | | Change Station

Elev 1001 ft 37.67 °N, 95.49 °W | Updated 3 minutes ago

Rain
Rain
51 °F
Feels Like 51 °F
N
13
Wind Variable Wind from WNW

Today
High -- | Low -- °F
--% Chance of Precip.
Yesterday
High -- | Low -- °F
Precip. -- in
Pressure 29.58 in
Visibility 1.8 miles
Clouds Scattered Clouds 500 ft
Mostly Cloudy 1000 ft
Overcast 1600 ft
Dew Point 48 °F
Humidity 89%
Rainfall 0.10 in
Snow Depth Not available.
7:09 AM 7:43 PM
Waxing Crescent, 9% visible
SPECI KCNU 301638Z AUTO 30011KT 1 3/4SM +RA BR SCT005 BKN010 OVC016 11/09 A2958 RMK AO2 VIS 1 1/4V4 RAE1556B28 P0003 T01060089
Pressure 29.58 in
Visibility 1.8 miles
Clouds Scattered Clouds 500 ft
Mostly Cloudy 1000 ft
Overcast 1600 ft
Dew Point 48 °F
Humidity 89%
Rainfall 0.10 in
Snow Depth Not available.
7:09 AM 7:43 PM
Waxing Crescent, 9% visible
SPECI KCNU 301638Z AUTO 30011KT 1 3/4SM +RA BR SCT005 BKN010 OVC016 11/09 A2958 RMK AO2 VIS 1 1/4V4 RAE1556B28 P0003 T01060089

Get Severe Weather Alerts

Thanks for signing up!

Be on the lookout for a verification email in your inbox.

You'll start receiving the daily forecast at 8 AM.

×

10-Day Weather Forecast

Almanac

Astronomy

Mar. 30, 2017 Rise Set
Actual Time
Civil Twilight
Nautical Twilight
Astronomical Twilight
Moon
Length of Visible Light
Length of Day
Tomorrow will be .
, % of the Moon is Illuminated

Today's Extremes

State Highs State Lows

Community

WunderPhotos

Upload Photos

1,962,540 photos uploaded!

WunderBlog® & News

Nearby

Air Quality

  Air Quality AQ Index Pollutant
Not available.

Snow Depth

Station Depth Elevation

Earthquake Activity

City Distance Mag. Time & Date
Minimum magnitude displayed is 2.5.

Earthquake Activity

City Distance Mag. Time & Date
Minimum magnitude displayed is 2.5.

Coastal Water Temperatures

Place Temperature

Stations

Nearby Weather Stations

Station Location Temp. Windchill Dew Point Humidity Wind Precip. Elev Updated Type
                   

Watches & Warnings

There are currently no watches in effect.